Bondville, Kentucky
Current Conditions -  °F | °C
As of 9:54 AM on Monday 24 Nov 2014 (Local Time) from KLEX Reporting Station
Broken Clouds Broken Clouds  
Wind Chill: 62°   Ceiling: 8000
Heat Index: 62°   Visibility: 10mi
Dew Point: 47°   Wind: 25mph
Humidity: 58%   Direction: 220°SW
Pressure: 29.48"   Gusts: 53mph
Location:  37.9095°N, 84.8846°W
Report Text: KLEX 241454Z 22022G46KT 10SM SCT044 BKN080 17/08 A2948 RMK AO2 PK WND 22046/1446 SLP977 T01670083 53021
Loading
Personal Weather Stations






























Interactive Weather Map New forecast layout! Learn more

10-Day Weather Forecast

Advertisements
Track Severe Weather on mobile